This is the latest recevied weather packets stored in our database for station/object KE6JJJ-1. If no packets are shown the sender has not sent any weather packets the latest 10 day(s).
| Time | Temp. | Humidity | Pressure | Rain* | Wind** | Luminosity | Snow |
|---|---|---|---|---|---|---|---|
| 1777687512 | 13.33° C | 84% | 1012.7 hPa | 0 mm | - | 37 W/m² | - |
| 1777685704 | 13.33° C | 82% | 1012.6 hPa | 0 mm | - | 64 W/m² | - |
| 1777683903 | 13.89° C | 82% | 1012.8 hPa | 0 mm | - | 178 W/m² | - |
| 1777682103 | 14.44° C | 80% | 1012.9 hPa | 0 mm | - | 67 W/m² | - |
| 1777680303 | 15° C | 77% | 1012.8 hPa | 0 mm | - | 193 W/m² | - |
| 1777678503 | 15.56° C | 77% | 1013.1 hPa | 0 mm | - | 538 W/m² | - |
| 1777676703 | 16.11° C | 75% | 1013.5 hPa | 0 mm | - | 410 W/m² | - |
| 1777674936 | 16.11° C | 74% | 1013.7 hPa | 0 mm | - | 686 W/m² | - |
| 1777674903 | 16.11° C | 74% | 1013.7 hPa | 0 mm | - | 686 W/m² | - |
| 1777673112 | 16.67° C | 73% | 1014.4 hPa | 0 mm | - | 717 W/m² | - |
| 1777671303 | 16.67° C | 74% | 1014.7 hPa | 0 mm | - | 909 W/m² | - |
| 1777669503 | 16.67° C | 75% | 1015 hPa | 0 mm | - | 649 W/m² | - |
| 1777667703 | 16.11° C | 76% | 1015.1 hPa | 0 mm | - | 571 W/m² | - |
| 1777665904 | 15.56° C | 77% | 1015.3 hPa | 0 mm | - | 608 W/m² | - |
| 1777664103 | 15.56° C | 79% | 1015.5 hPa | 0 mm | - | 445 W/m² | - |
| 1777662312 | 15° C | 81% | 1015.8 hPa | 0 mm | - | 446 W/m² | - |
| 1777660503 | 14.44° C | 83% | 1015.8 hPa | 0 mm | - | 318 W/m² | - |
| 1777658712 | 13.89° C | 85% | 1015.8 hPa | 0 mm | - | 244 W/m² | - |
| 1777656903 | 13.33° C | 86% | 1015.9 hPa | 0 mm | - | 202 W/m² | - |
| 1777653303 | 12.78° C | 87% | 1015.7 hPa | 0 mm | - | 127 W/m² | - |
| 1777651504 | 12.78° C | 87% | 1015.6 hPa | 0 mm | - | 104 W/m² | - |
| 1777649703 | 12.78° C | 87% | 1015.3 hPa | 0 mm | - | 77 W/m² | - |
| 1777647903 | 12.78° C | 87% | 1015.1 hPa | 0 mm | - | 53 W/m² | - |
| 1777646103 | 12.22° C | 88% | 1014.9 hPa | 0 mm | - | 33 W/m² | - |
| 1777644303 | 12.22° C | 88% | 1014.6 hPa | 0 mm | - | 19 W/m² | - |
* Rain latest hour (hover to see other rain measurements)
** Current wind speed in m/s (hover to see current wind gust speed)